Time;durP1;ratioP1;P1;durP2;ratioP2;P2;SDS_P1;SDS_P2;PMS_P1;PMS_P2;Temp;Humidity;BMP_temperature;BMP_pressure;BME280_temperature;BME280_humidity;BME280_pressure;Samples;Min_cycle;Max_cycle;Signal;HPM_P1;HPM_P2
2024/04/23 00:00:22;;;;;;;2.20;1.80;;;;;;;;;;5403835;26;20234;-70
2024/04/23 00:02:48;;;;;;;5.47;2.43;;;;;;;;;;5404546;26;20381;-71
2024/04/23 00:05:13;;;;;;;3.73;1.93;;;;;;;;;;5408888;26;20745;-69
2024/04/23 00:07:38;;;;;;;2.37;1.67;;;;;;;;;;5402170;26;20343;-69
2024/04/23 00:10:03;;;;;;;5.53;1.90;;;;;;;;;;5409439;26;20378;-70
2024/04/23 00:12:29;;;;;;;2.70;1.80;;;;;;;;;;5410878;26;20355;-71
2024/04/23 00:14:54;;;;;;;2.03;1.67;;;;;;;;;;5408739;26;20423;-69
2024/04/23 00:17:19;;;;;;;3.60;1.70;;;;;;;;;;5410853;26;20343;-71
2024/04/23 00:19:44;;;;;;;3.70;2.03;;;;;;;;;;5409577;26;20643;-70
2024/04/23 00:22:09;;;;;;;2.13;1.30;;;;;;;;;;5407823;26;20285;-70
2024/04/23 00:24:34;;;;;;;2.47;1.83;;;;;;;;;;5409152;26;20254;-70
2024/04/23 00:27:00;;;;;;;3.03;1.87;;;;;;;;;;5413279;26;20725;-70
2024/04/23 00:29:26;;;;;;;3.60;1.80;;;;;;;;;;5411207;26;20238;-70
2024/04/23 00:31:51;;;;;;;4.80;1.97;;;;;;;;;;5410211;26;20235;-70
2024/04/23 00:34:17;;;;;;;2.27;1.80;;;;;;;;;;5410923;26;21207;-69
2024/04/23 00:36:51;;;;;;;2.90;1.73;;;;;;;;;;5410575;26;20554;-70
2024/04/23 00:39:16;;;;;;;4.70;2.57;;;;;;;;;;5408186;26;20759;-69
2024/04/23 00:41:41;;;;;;;3.67;2.20;;;;;;;;;;5411295;26;20247;-69
2024/04/23 00:44:06;;;;;;;2.73;1.67;;;;;;;;;;5412088;26;20243;-70
2024/04/23 00:46:33;;;;;;;3.80;2.10;;;;;;;;;;5406720;26;20239;-70
2024/04/23 00:48:58;;;;;;;3.00;1.83;;;;;;;;;;5412297;26;20277;-71
2024/04/23 00:51:23;;;;;;;2.53;1.67;;;;;;;;;;5407977;26;20606;-69
2024/04/23 00:53:48;;;;;;;2.77;1.73;;;;;;;;;;5410434;26;20235;-70
2024/04/23 00:56:15;;;;;;;3.07;1.93;;;;;;;;;;5407421;26;20235;-70
2024/04/23 00:58:42;;;;;;;2.63;1.80;;;;;;;;;;5410289;26;20742;-69
2024/04/23 01:01:08;;;;;;;3.87;2.20;;;;;;;;;;5409495;26;20247;-71
2024/04/23 01:03:33;;;;;;;2.10;1.90;;;;;;;;;;5409187;26;20237;-70
2024/04/23 01:05:59;;;;;;;2.17;1.60;;;;;;;;;;5410694;26;20231;-69
2024/04/23 01:08:24;;;;;;;2.53;1.90;;;;;;;;;;5409775;26;20284;-68
2024/04/23 01:10:49;;;;;;;2.47;2.17;;;;;;;;;;5402991;26;20642;-68
2024/04/23 01:13:14;;;;;;;2.43;1.77;;;;;;;;;;5396657;26;20281;-69
2024/04/23 01:15:41;;;;;;;3.20;2.20;;;;;;;;;;5406373;26;20289;-70
2024/04/23 01:18:07;;;;;;;4.03;2.10;;;;;;;;;;5413420;26;20897;-70
2024/04/23 01:20:32;;;;;;;4.87;2.30;;;;;;;;;;5408520;26;20246;-70
2024/04/23 01:22:58;;;;;;;6.73;2.73;;;;;;;;;;5411683;26;20230;-70
2024/04/23 01:25:23;;;;;;;4.77;2.40;;;;;;;;;;5406954;26;20230;-69
2024/04/23 01:27:49;;;;;;;4.33;2.60;;;;;;;;;;5407550;26;20651;-69
2024/04/23 01:30:16;;;;;;;4.57;2.67;;;;;;;;;;5407036;26;20289;-69
2024/04/23 01:32:42;;;;;;;3.23;2.50;;;;;;;;;;5423833;26;20239;-71
2024/04/23 01:35:08;;;;;;;3.83;2.63;;;;;;;;;;5404878;26;20282;-70
2024/04/23 01:37:34;;;;;;;3.67;2.43;;;;;;;;;;5410159;26;20247;-69
2024/04/23 01:40:00;;;;;;;4.13;2.77;;;;;;;;;;5401979;26;20266;-71
2024/04/23 01:42:25;;;;;;;3.57;2.50;;;;;;;;;;5402702;26;20242;-70
2024/04/23 01:44:50;;;;;;;5.13;2.80;;;;;;;;;;5390910;26;20675;-69
2024/04/23 01:47:16;;;;;;;6.50;2.63;;;;;;;;;;5403110;26;20776;-70
2024/04/23 01:49:42;;;;;;;5.27;3.30;;;;;;;;;;5405911;26;20273;-70
2024/04/23 01:52:07;;;;;;;3.43;2.40;;;;;;;;;;5400399;26;20631;-69
2024/04/23 01:54:32;;;;;;;6.33;2.47;;;;;;;;;;5398147;26;20301;-69
2024/04/23 01:57:00;;;;;;;3.73;2.47;;;;;;;;;;5405013;26;20742;-70
2024/04/23 01:59:25;;;;;;;4.33;2.73;;;;;;;;;;5405651;26;20242;-70
2024/04/23 02:01:52;;;;;;;3.17;2.63;;;;;;;;;;5399765;26;20354;-70
2024/04/23 02:04:18;;;;;;;5.47;2.80;;;;;;;;;;5410523;26;20347;-69
2024/04/23 02:06:44;;;;;;;5.43;2.83;;;;;;;;;;5405981;26;20859;-70
2024/04/23 02:09:09;;;;;;;6.30;2.23;;;;;;;;;;5407771;26;20246;-69
2024/04/23 02:11:34;;;;;;;4.93;2.90;;;;;;;;;;5411010;26;20399;-70
2024/04/23 02:13:59;;;;;;;3.10;2.40;;;;;;;;;;5409235;26;20892;-70
2024/04/23 02:16:25;;;;;;;4.87;2.10;;;;;;;;;;5413142;26;20347;-70
2024/04/23 02:18:50;;;;;;;3.07;2.23;;;;;;;;;;5408749;26;20298;-71
2024/04/23 02:21:15;;;;;;;4.47;2.83;;;;;;;;;;5410920;26;20288;-70
2024/04/23 02:23:40;;;;;;;3.27;2.13;;;;;;;;;;5406219;26;20234;-69
2024/04/23 02:26:05;;;;;;;5.80;2.70;;;;;;;;;;5406666;26;20320;-70
2024/04/23 02:28:31;;;;;;;5.17;2.57;;;;;;;;;;5408977;26;20235;-70
2024/04/23 02:30:56;;;;;;;4.13;2.50;;;;;;;;;;5412703;26;20824;-70
2024/04/23 02:33:21;;;;;;;4.20;2.57;;;;;;;;;;5415485;26;20214;-71
2024/04/23 02:35:46;;;;;;;4.77;2.30;;;;;;;;;;5413251;26;20235;-70
2024/04/23 02:38:11;;;;;;;5.67;3.20;;;;;;;;;;5411304;26;20643;-69
2024/04/23 02:40:37;;;;;;;3.80;2.67;;;;;;;;;;5415519;26;20340;-68
2024/04/23 02:43:02;;;;;;;3.67;2.80;;;;;;;;;;5409058;26;20796;-69
2024/04/23 02:45:27;;;;;;;5.40;2.53;;;;;;;;;;5408341;26;20277;-70
2024/04/23 02:47:52;;;;;;;5.07;2.90;;;;;;;;;;5410083;26;20242;-70
2024/04/23 02:50:17;;;;;;;3.47;2.30;;;;;;;;;;5411991;26;22160;-69
2024/04/23 02:52:43;;;;;;;3.97;2.90;;;;;;;;;;5410626;26;20297;-70
2024/04/23 02:55:08;;;;;;;4.87;2.70;;;;;;;;;;5403146;26;20236;-70
2024/04/23 02:57:33;;;;;;;4.93;2.53;;;;;;;;;;5403008;26;20274;-71
2024/04/23 02:59:58;;;;;;;5.03;2.30;;;;;;;;;;5411275;26;20231;-70
2024/04/23 03:02:23;;;;;;;3.27;2.30;;;;;;;;;;5409994;26;20277;-69
2024/04/23 03:04:49;;;;;;;2.93;2.60;;;;;;;;;;5410601;26;20655;-69
2024/04/23 03:07:14;;;;;;;3.80;2.90;;;;;;;;;;5405141;26;20327;-71
2024/04/23 03:09:39;;;;;;;5.60;3.17;;;;;;;;;;5412131;26;20290;-70
2024/04/23 03:12:04;;;;;;;3.70;2.73;;;;;;;;;;5413632;26;20243;-70
2024/04/23 03:14:29;;;;;;;3.83;3.17;;;;;;;;;;5411723;26;20494;-70
2024/04/23 03:16:55;;;;;;;3.30;2.40;;;;;;;;;;5412824;26;20363;-70
2024/04/23 03:19:20;;;;;;;3.17;2.77;;;;;;;;;;5409829;26;20279;-71
2024/04/23 03:21:49;;;;;;;4.67;2.70;;;;;;;;;;5412390;26;20238;-70
2024/04/23 03:24:14;;;;;;;4.43;2.97;;;;;;;;;;5411029;26;20691;-71
2024/04/23 03:26:39;;;;;;;3.93;2.83;;;;;;;;;;5408072;26;20231;-70
2024/04/23 03:29:04;;;;;;;3.53;2.30;;;;;;;;;;5410713;26;20288;-70
2024/04/23 03:31:29;;;;;;;4.30;2.83;;;;;;;;;;5426950;21;20298;-69
2024/04/23 03:33:55;;;;;;;5.17;3.10;;;;;;;;;;5421060;26;20589;-69
2024/04/23 03:36:20;;;;;;;5.10;3.00;;;;;;;;;;5383151;26;20334;-70
2024/04/23 03:38:45;;;;;;;3.73;3.00;;;;;;;;;;5412542;26;20288;-69
2024/04/23 03:41:10;;;;;;;4.27;2.63;;;;;;;;;;5412113;26;20583;-70
2024/04/23 03:43:35;;;;;;;5.53;2.80;;;;;;;;;;5376921;26;20253;-70
2024/04/23 03:46:00;;;;;;;6.70;3.00;;;;;;;;;;5404103;26;20344;-69
2024/04/23 03:48:26;;;;;;;7.30;4.53;;;;;;;;;;5408693;26;20347;-69
2024/04/23 03:50:51;;;;;;;5.20;3.23;;;;;;;;;;5400677;26;20665;-69
2024/04/23 03:53:16;;;;;;;4.43;3.03;;;;;;;;;;5409096;26;20231;-69
2024/04/23 03:55:41;;;;;;;5.97;3.57;;;;;;;;;;5400949;26;20337;-70
2024/04/23 03:58:06;;;;;;;3.80;3.03;;;;;;;;;;5378598;26;20347;-69
2024/04/23 04:00:32;;;;;;;4.63;3.07;;;;;;;;;;5408417;26;20234;-69
2024/04/23 04:08:25;;;;;;;3.90;2.90;;;;;;;;;;5406279;26;20784;-69
2024/04/23 04:10:50;;;;;;;4.47;3.00;;;;;;;;;;5408017;26;20238;-71
2024/04/23 04:13:15;;;;;;;6.53;3.80;;;;;;;;;;5402526;26;20267;-69
2024/04/23 04:15:40;;;;;;;4.97;2.73;;;;;;;;;;5391881;26;20235;-69
2024/04/23 04:18:06;;;;;;;5.63;3.50;;;;;;;;;;5375129;26;20236;-69
2024/04/23 04:20:31;;;;;;;7.67;3.60;;;;;;;;;;5373189;26;20807;-69
2024/04/23 04:22:56;;;;;;;3.57;3.20;;;;;;;;;;5400998;26;20232;-69
2024/04/23 04:25:21;;;;;;;7.63;3.10;;;;;;;;;;5378074;26;20273;-69
2024/04/23 04:27:46;;;;;;;6.40;3.30;;;;;;;;;;5410360;26;20269;-70
2024/04/23 04:30:12;;;;;;;5.17;3.47;;;;;;;;;;5373057;26;20328;-68
2024/04/23 04:32:37;;;;;;;7.37;3.73;;;;;;;;;;5377170;26;20701;-69
2024/04/23 04:35:02;;;;;;;5.07;3.43;;;;;;;;;;5412523;26;20247;-70
2024/04/23 04:37:34;;;;;;;5.63;3.70;;;;;;;;;;5409910;26;20281;-70
2024/04/23 04:39:59;;;;;;;4.87;3.53;;;;;;;;;;5399570;26;20247;-70
2024/04/23 04:42:24;;;;;;;6.63;4.53;;;;;;;;;;5377054;26;20364;-70
2024/04/23 04:44:50;;;;;;;8.43;4.10;;;;;;;;;;5404764;26;20630;-70
2024/04/23 04:47:15;;;;;;;7.47;3.60;;;;;;;;;;5402608;26;20282;-69
2024/04/23 04:49:40;;;;;;;4.47;3.33;;;;;;;;;;5410752;26;20242;-69
2024/04/23 04:52:05;;;;;;;7.03;3.87;;;;;;;;;;5402168;26;20242;-69
2024/04/23 04:54:30;;;;;;;4.60;3.27;;;;;;;;;;5397262;26;20772;-69
2024/04/23 04:56:55;;;;;;;5.77;3.60;;;;;;;;;;5410676;26;20285;-70
2024/04/23 04:59:21;;;;;;;6.73;4.03;;;;;;;;;;5376754;26;20239;-69
2024/04/23 05:01:46;;;;;;;6.43;3.93;;;;;;;;;;5407240;26;20246;-69
2024/04/23 05:04:11;;;;;;;4.73;3.60;;;;;;;;;;5395940;26;20325;-70
2024/04/23 05:06:36;;;;;;;6.03;4.23;;;;;;;;;;5404022;26;20574;-70
2024/04/23 05:09:03;;;;;;;5.33;3.73;;;;;;;;;;5397128;26;20285;-70
2024/04/23 05:11:28;;;;;;;6.80;4.13;;;;;;;;;;5378807;26;20746;-70
2024/04/23 05:13:53;;;;;;;7.40;4.43;;;;;;;;;;5401434;26;20236;-71
2024/04/23 05:16:20;;;;;;;5.50;4.17;;;;;;;;;;5406293;26;20367;-70
2024/04/23 05:18:45;;;;;;;6.37;4.20;;;;;;;;;;5397532;26;20243;-71
2024/04/23 05:21:10;;;;;;;8.73;4.70;;;;;;;;;;5398349;26;20411;-70
2024/04/23 05:23:35;;;;;;;7.03;4.47;;;;;;;;;;5368390;26;20883;-71
2024/04/23 05:26:00;;;;;;;9.90;4.80;;;;;;;;;;5391100;26;20311;-70
2024/04/23 05:28:26;;;;;;;6.93;4.20;;;;;;;;;;5400454;26;20234;-70
2024/04/23 05:33:35;;;;;;;7.53;5.03;;;;;;;;;;5412093;26;20878;-70
2024/04/23 05:36:00;;;;;;;12.33;5.20;;;;;;;;;;5398516;26;20367;-70
2024/04/23 05:38:27;;;;;;;7.10;4.83;;;;;;;;;;5372291;26;20242;-70
2024/04/23 05:40:52;;;;;;;9.30;5.60;;;;;;;;;;5366624;26;20591;-70
2024/04/23 05:43:17;;;;;;;7.60;4.87;;;;;;;;;;5398373;26;20289;-70
2024/04/23 05:45:43;;;;;;;7.37;4.87;;;;;;;;;;5401513;26;20769;-70
2024/04/23 05:48:27;;;;;;;10.30;5.67;;;;;;;;;;5359128;26;20722;-70
2024/04/23 05:51:11;;;;;;;10.80;5.60;;;;;;;;;;5370313;26;20242;-70
2024/04/23 05:53:57;;;;;;;11.97;5.47;;;;;;;;;;5374251;26;20265;-71
2024/04/23 05:56:22;;;;;;;8.67;5.87;;;;;;;;;;5404392;26;20230;-70
2024/04/23 05:58:47;;;;;;;12.80;6.33;;;;;;;;;;5406571;26;20656;-70
2024/04/23 06:01:14;;;;;;;11.77;5.93;;;;;;;;;;5373784;26;20290;-71
2024/04/23 06:03:39;;;;;;;7.17;5.40;;;;;;;;;;5405399;26;20771;-70
2024/04/23 06:06:04;;;;;;;11.33;6.37;;;;;;;;;;5403874;26;20351;-70
2024/04/23 06:08:29;;;;;;;10.73;6.03;;;;;;;;;;5405903;26;20246;-69
2024/04/23 06:10:55;;;;;;;8.40;5.47;;;;;;;;;;5401042;26;20343;-71
2024/04/23 06:13:20;;;;;;;7.30;5.33;;;;;;;;;;5375787;26;20273;-70
2024/04/23 06:15:45;;;;;;;8.43;5.20;;;;;;;;;;5409533;26;20401;-70
2024/04/23 06:18:10;;;;;;;7.87;5.67;;;;;;;;;;5401829;26;20277;-70
2024/04/23 06:20:35;;;;;;;8.83;5.43;;;;;;;;;;5380174;26;20273;-71
2024/04/23 06:23:01;;;;;;;10.40;5.60;;;;;;;;;;5405147;26;20238;-71
2024/04/23 06:25:26;;;;;;;7.40;5.63;;;;;;;;;;5405463;26;20630;-70
2024/04/23 06:27:51;;;;;;;14.83;5.40;;;;;;;;;;5406910;26;20267;-70
2024/04/23 06:30:16;;;;;;;6.83;5.10;;;;;;;;;;5398783;26;20281;-70
2024/04/23 06:32:42;;;;;;;8.23;5.53;;;;;;;;;;5404355;26;20234;-70
2024/04/23 06:35:08;;;;;;;8.23;5.57;;;;;;;;;;5405607;26;20627;-71
2024/04/23 06:37:34;;;;;;;8.77;5.90;;;;;;;;;;5401850;26;20336;-70
2024/04/23 06:39:59;;;;;;;10.17;5.90;;;;;;;;;;5377160;26;20691;-71
2024/04/23 06:42:24;;;;;;;7.13;5.23;;;;;;;;;;5397942;26;20415;-70
2024/04/23 06:44:49;;;;;;;8.03;5.20;;;;;;;;;;5403388;26;20235;-70
2024/04/23 06:47:14;;;;;;;10.13;5.90;;;;;;;;;;5406602;26;20277;-70
2024/04/23 06:49:42;;;;;;;6.57;5.17;;;;;;;;;;5400200;26;20337;-70
2024/04/23 06:52:09;;;;;;;8.60;5.70;;;;;;;;;;5407641;26;20343;-71
2024/04/23 06:54:34;;;;;;;15.00;5.37;;;;;;;;;;5403382;26;20235;-70
2024/04/23 06:56:59;;;;;;;7.80;5.50;;;;;;;;;;5366147;26;20797;-70
2024/04/23 06:59:24;;;;;;;8.10;5.60;;;;;;;;;;5408009;26;20238;-70
2024/04/23 07:01:50;;;;;;;6.20;5.20;;;;;;;;;;5375470;26;20289;-70
2024/04/23 07:04:15;;;;;;;5.47;4.40;;;;;;;;;;5403684;26;20282;-71
2024/04/23 07:06:40;;;;;;;7.20;5.00;;;;;;;;;;5412893;26;20234;-71
2024/04/23 07:09:06;;;;;;;9.70;5.30;;;;;;;;;;5409259;26;20331;-71
2024/04/23 07:11:32;;;;;;;6.90;4.70;;;;;;;;;;5409602;26;20562;-70
2024/04/23 07:13:57;;;;;;;7.87;5.13;;;;;;;;;;5398380;26;20335;-70
2024/04/23 07:16:22;;;;;;;7.13;4.77;;;;;;;;;;5406103;26;20265;-71
2024/04/23 07:18:47;;;;;;;7.60;5.37;;;;;;;;;;5403848;26;20357;-71
2024/04/23 07:21:12;;;;;;;8.30;6.07;;;;;;;;;;5401504;26;20278;-70
2024/04/23 07:23:38;;;;;;;9.67;4.63;;;;;;;;;;5403967;26;20274;-71
2024/04/23 07:26:03;;;;;;;6.30;4.20;;;;;;;;;;5409895;26;20227;-71
2024/04/23 07:28:29;;;;;;;5.63;4.10;;;;;;;;;;5398460;26;20242;-70
2024/04/23 07:30:54;;;;;;;4.90;3.63;;;;;;;;;;5404175;26;20239;-70
2024/04/23 07:33:19;;;;;;;5.37;4.27;;;;;;;;;;5379607;26;20239;-71
2024/04/23 07:35:45;;;;;;;6.93;4.22;;;;;;;;;;5359497;26;20286;-70
2024/04/23 07:38:11;;;;;;;5.65;3.78;;;;;;;;;;5408644;26;20608;-70
2024/04/23 07:40:37;;;;;;;6.53;3.72;;;;;;;;;;5408278;26;20234;-70
2024/04/23 07:43:03;;;;;;;5.88;3.67;;;;;;;;;;5403732;26;20282;-72
2024/04/23 07:45:28;;;;;;;5.78;3.72;;;;;;;;;;5399990;26;20227;-72
2024/04/23 07:47:53;;;;;;;4.70;3.42;;;;;;;;;;5411168;26;20280;-70
2024/04/23 07:50:18;;;;;;;4.15;3.50;;;;;;;;;;5371765;26;20239;-70
2024/04/23 07:52:44;;;;;;;4.82;3.28;;;;;;;;;;5402736;26;20239;-70
2024/04/23 07:55:09;;;;;;;5.60;3.78;;;;;;;;;;5408736;26;20989;-70
2024/04/23 07:57:34;;;;;;;7.90;3.55;;;;;;;;;;5409415;26;20269;-72
2024/04/23 07:59:59;;;;;;;6.22;3.97;;;;;;;;;;5409538;26;20234;-70
2024/04/23 08:02:25;;;;;;;3.50;2.95;;;;;;;;;;5409142;26;20266;-70
2024/04/23 08:04:51;;;;;;;4.32;3.00;;;;;;;;;;5404882;26;20231;-70
2024/04/23 08:07:16;;;;;;;6.13;3.58;;;;;;;;;;5411513;26;20347;-70
2024/04/23 08:09:41;;;;;;;4.03;3.20;;;;;;;;;;5410035;26;20235;-70
2024/04/23 08:12:06;;;;;;;3.92;2.97;;;;;;;;;;5410383;26;20239;-69
2024/04/23 08:14:32;;;;;;;12.05;3.63;;;;;;;;;;5403112;26;20242;-69
2024/04/23 08:16:57;;;;;;;4.07;2.55;;;;;;;;;;5404044;26;20239;-70
2024/04/23 08:19:22;;;;;;;4.60;2.45;;;;;;;;;;5412502;26;20278;-70
2024/04/23 08:21:47;;;;;;;4.80;3.58;;;;;;;;;;5398413;26;20365;-70
2024/04/23 08:24:13;;;;;;;3.65;3.33;;;;;;;;;;5402540;26;20753;-70
2024/04/23 08:26:38;;;;;;;1.98;1.80;;;;;;;;;;5401468;26;20234;-71
2024/04/23 08:29:04;;;;;;;3.05;2.30;;;;;;;;;;5409695;26;20285;-70
2024/04/23 08:31:29;;;;;;;4.43;2.10;;;;;;;;;;5407534;26;20291;-70
2024/04/23 08:33:55;;;;;;;4.15;2.67;;;;;;;;;;5409270;26;20324;-71
2024/04/23 08:36:21;;;;;;;3.58;2.70;;;;;;;;;;5404898;26;20234;-70
2024/04/23 08:38:46;;;;;;;4.53;3.20;;;;;;;;;;5401744;26;20637;-70
2024/04/23 08:41:15;;;;;;;3.97;2.33;;;;;;;;;;5375036;26;20244;-72
2024/04/23 08:43:46;;;;;;;3.42;2.60;;;;;;;;;;5403569;26;20228;-70
2024/04/23 08:46:11;;;;;;;3.50;2.72;;;;;;;;;;5409953;26;20332;-70
2024/04/23 08:48:39;;;;;;;5.15;2.72;;;;;;;;;;5402642;26;20314;-69
2024/04/23 08:51:05;;;;;;;4.38;2.53;;;;;;;;;;5411907;26;20354;-69
2024/04/23 08:53:32;;;;;;;4.07;2.70;;;;;;;;;;5409762;26;20235;-69
2024/04/23 08:56:01;;;;;;;3.63;2.75;;;;;;;;;;5398255;26;20231;-70
2024/04/23 08:58:26;;;;;;;3.97;2.90;;;;;;;;;;5395784;26;20253;-69
2024/04/23 09:00:54;;;;;;;3.13;2.50;;;;;;;;;;5407080;26;20242;-70
2024/04/23 09:03:20;;;;;;;3.17;2.53;;;;;;;;;;5403087;26;20242;-69
2024/04/23 09:05:45;;;;;;;4.00;2.63;;;;;;;;;;5393732;26;20243;-70
2024/04/23 09:08:11;;;;;;;2.58;2.05;;;;;;;;;;5401712;26;20274;-69
2024/04/23 09:10:37;;;;;;;5.75;2.45;;;;;;;;;;5381092;26;20261;-70
2024/04/23 09:13:02;;;;;;;3.15;2.22;;;;;;;;;;5402995;26;20232;-70
2024/04/23 09:15:27;;;;;;;3.00;2.55;;;;;;;;;;5378370;26;20269;-70
2024/04/23 09:17:56;;;;;;;3.78;2.55;;;;;;;;;;5408869;26;20288;-71
2024/04/23 09:20:24;;;;;;;5.22;2.53;;;;;;;;;;5405901;26;20239;-70
2024/04/23 09:22:53;;;;;;;3.33;1.90;;;;;;;;;;5409564;26;20638;-71
2024/04/23 09:25:19;;;;;;;3.25;2.25;;;;;;;;;;5398475;26;20242;-71
2024/04/23 09:27:44;;;;;;;4.68;2.50;;;;;;;;;;5406899;26;20347;-71
2024/04/23 09:30:10;;;;;;;3.85;2.78;;;;;;;;;;5403742;26;20231;-70
2024/04/23 09:32:35;;;;;;;4.32;2.53;;;;;;;;;;5452481;21;20273;-68
2024/04/23 09:35:00;;;;;;;3.30;2.72;;;;;;;;;;5446108;26;20810;-69
2024/04/23 09:37:26;;;;;;;4.22;2.25;;;;;;;;;;5421622;26;20286;-69
2024/04/23 09:39:51;;;;;;;3.17;2.53;;;;;;;;;;5448017;26;20238;-69
2024/04/23 09:42:25;;;;;;;3.42;2.95;;;;;;;;;;5444370;26;20233;-68
2024/04/23 09:44:51;;;;;;;3.15;2.13;;;;;;;;;;5442208;26;20563;-69
2024/04/23 09:47:16;;;;;;;2.33;1.52;;;;;;;;;;5445812;26;20284;-68
2024/04/23 09:49:44;;;;;;;2.72;2.25;;;;;;;;;;5446232;26;20237;-70
2024/04/23 09:52:11;;;;;;;2.75;1.98;;;;;;;;;;5414841;26;20342;-69
2024/04/23 09:54:40;;;;;;;2.65;1.98;;;;;;;;;;5446032;26;20297;-70
2024/04/23 09:57:05;;;;;;;2.83;1.92;;;;;;;;;;5448076;26;20811;-69
2024/04/23 09:59:30;;;;;;;2.75;2.00;;;;;;;;;;5446195;26;20284;-69
2024/04/23 10:01:57;;;;;;;2.90;2.00;;;;;;;;;;5447251;26;20237;-68
2024/04/23 10:04:22;;;;;;;2.33;2.13;;;;;;;;;;5446102;26;20280;-69
2024/04/23 10:06:50;;;;;;;2.72;2.25;;;;;;;;;;5415322;26;20260;-69
2024/04/23 10:09:16;;;;;;;4.18;2.72;;;;;;;;;;5449516;26;20236;-68
2024/04/23 10:11:50;;;;;;;2.47;2.05;;;;;;;;;;5444045;26;20278;-68
2024/04/23 10:14:15;;;;;;;3.13;2.13;;;;;;;;;;5444721;26;20857;-68
2024/04/23 10:16:45;;;;;;;3.15;2.08;;;;;;;;;;5446304;26;20309;-68
2024/04/23 10:19:11;;;;;;;2.20;1.92;;;;;;;;;;5449334;26;20306;-70
2024/04/23 10:21:39;;;;;;;3.30;1.90;;;;;;;;;;5444065;26;20238;-69
2024/04/23 10:24:09;;;;;;;3.05;2.15;;;;;;;;;;5453622;26;20241;-69
2024/04/23 10:26:39;;;;;;;3.38;1.90;;;;;;;;;;5441474;26;20840;-67
2024/04/23 10:29:06;;;;;;;2.78;2.03;;;;;;;;;;5446549;26;20304;-69
2024/04/23 10:31:31;;;;;;;2.60;2.17;;;;;;;;;;5447688;26;20246;-69
2024/04/23 10:33:57;;;;;;;4.68;2.22;;;;;;;;;;5441081;26;20229;-68
2024/04/23 10:36:23;;;;;;;3.30;1.98;;;;;;;;;;5448143;26;20237;-68
2024/04/23 10:38:50;;;;;;;3.22;2.05;;;;;;;;;;5457772;26;20230;-68
2024/04/23 10:41:15;;;;;;;4.35;2.38;;;;;;;;;;5447988;26;20234;-68
2024/04/23 10:43:41;;;;;;;5.43;2.03;;;;;;;;;;5444009;26;20563;-68
2024/04/23 10:46:06;;;;;;;4.70;2.05;;;;;;;;;;5437544;26;20323;-69
2024/04/23 10:48:36;;;;;;;2.67;2.30;;;;;;;;;;5445263;26;20284;-69
2024/04/23 10:51:02;;;;;;;3.15;2.13;;;;;;;;;;5416663;26;20659;-68
2024/04/23 10:53:30;;;;;;;3.25;2.10;;;;;;;;;;5438939;26;20333;-68
2024/04/23 10:55:55;;;;;;;2.50;2.10;;;;;;;;;;5446500;26;20241;-67
2024/04/23 10:58:20;;;;;;;3.72;2.40;;;;;;;;;;5449844;26;20226;-68
2024/04/23 11:00:45;;;;;;;3.92;2.50;;;;;;;;;;5446970;26;20280;-68
2024/04/23 11:03:14;;;;;;;4.07;2.70;;;;;;;;;;5447177;26;20276;-68
2024/04/23 11:05:46;;;;;;;3.05;2.45;;;;;;;;;;5443647;26;20271;-68
2024/04/23 11:08:20;;;;;;;3.60;2.67;;;;;;;;;;5443812;26;20268;-68
2024/04/23 11:10:52;;;;;;;2.88;2.45;;;;;;;;;;5445604;26;20318;-69
2024/04/23 11:13:24;;;;;;;2.25;1.92;;;;;;;;;;5417048;26;20285;-68
2024/04/23 11:15:50;;;;;;;4.53;2.88;;;;;;;;;;5414090;26;20268;-68
2024/04/23 11:18:19;;;;;;;3.03;2.33;;;;;;;;;;5445068;26;20621;-69
2024/04/23 11:20:45;;;;;;;5.32;2.92;;;;;;;;;;5446602;26;20229;-69
2024/04/23 11:23:11;;;;;;;6.15;2.60;;;;;;;;;;5437318;26;20235;-68
2024/04/23 11:25:36;;;;;;;3.00;2.70;;;;;;;;;;5410905;26;20348;-67
2024/04/23 11:28:01;;;;;;;3.05;2.45;;;;;;;;;;5409360;26;20233;-68
2024/04/23 11:30:27;;;;;;;3.65;2.72;;;;;;;;;;5440886;26;20278;-68
2024/04/23 11:32:53;;;;;;;4.15;2.80;;;;;;;;;;5413473;26;20783;-69
2024/04/23 11:35:19;;;;;;;5.38;2.88;;;;;;;;;;5438271;26;20249;-68
2024/04/23 11:37:44;;;;;;;3.38;2.40;;;;;;;;;;5414865;26;20237;-68
2024/04/23 11:40:10;;;;;;;4.30;3.17;;;;;;;;;;5388152;26;20237;-68
2024/04/23 11:42:35;;;;;;;3.72;2.72;;;;;;;;;;5450245;26;20337;-69
2024/04/23 11:45:01;;;;;;;3.70;2.70;;;;;;;;;;5415110;26;20740;-68
2024/04/23 11:47:27;;;;;;;4.65;2.90;;;;;;;;;;5442343;26;20229;-69
2024/04/23 11:49:53;;;;;;;3.88;2.80;;;;;;;;;;5413087;26;20230;-67
2024/04/23 11:52:19;;;;;;;4.78;3.03;;;;;;;;;;5446369;26;20241;-68
2024/04/23 11:54:44;;;;;;;5.28;3.55;;;;;;;;;;5442456;26;20237;-68
2024/04/23 11:57:10;;;;;;;3.60;2.65;;;;;;;;;;5447677;26;20280;-68
2024/04/23 11:59:39;;;;;;;4.95;3.30;;;;;;;;;;5440206;26;20238;-67
2024/04/23 12:02:05;;;;;;;4.55;2.80;;;;;;;;;;5440161;26;20324;-69
2024/04/23 12:04:30;;;;;;;4.63;3.10;;;;;;;;;;5443013;26;20337;-68
2024/04/23 12:06:56;;;;;;;5.10;3.17;;;;;;;;;;5439850;26;20242;-69
2024/04/23 12:09:22;;;;;;;3.88;3.00;;;;;;;;;;5439350;26;20226;-67
2024/04/23 12:11:47;;;;;;;2.53;2.33;;;;;;;;;;5444905;26;20301;-68
2024/04/23 12:14:12;;;;;;;5.10;2.60;;;;;;;;;;5439706;26;20226;-69
2024/04/23 12:16:44;;;;;;;5.18;3.38;;;;;;;;;;5442193;26;20346;-68
2024/04/23 12:19:09;;;;;;;3.45;2.80;;;;;;;;;;5442285;26;20242;-70
2024/04/23 12:21:35;;;;;;;5.30;3.05;;;;;;;;;;5443497;26;20347;-68
2024/04/23 12:24:00;;;;;;;4.43;2.67;;;;;;;;;;5447084;26;20229;-69
2024/04/23 12:26:25;;;;;;;3.03;2.70;;;;;;;;;;5446678;26;20286;-69
2024/04/23 12:28:53;;;;;;;3.45;2.72;;;;;;;;;;5434571;26;20287;-69
2024/04/23 12:31:19;;;;;;;3.65;3.03;;;;;;;;;;5452007;26;20747;-68
2024/04/23 12:33:44;;;;;;;3.50;3.20;;;;;;;;;;5447153;26;20308;-69
2024/04/23 12:36:11;;;;;;;6.45;3.15;;;;;;;;;;5437216;26;20281;-68
2024/04/23 12:38:42;;;;;;;3.83;3.20;;;;;;;;;;5440564;26;20564;-68
2024/04/23 12:41:08;;;;;;;5.05;3.58;;;;;;;;;;5435816;26;20347;-68
2024/04/23 12:43:33;;;;;;;4.25;3.13;;;;;;;;;;5443894;26;20241;-67
2024/04/23 12:45:58;;;;;;;3.33;2.88;;;;;;;;;;5442589;26;20298;-68
2024/04/23 12:48:23;;;;;;;3.08;2.67;;;;;;;;;;5440878;26;20275;-67
2024/04/23 12:50:49;;;;;;;3.30;2.20;;;;;;;;;;5406878;26;20245;-68
2024/04/23 12:53:14;;;;;;;3.38;2.25;;;;;;;;;;5444457;26;20230;-69
2024/04/23 12:55:39;;;;;;;2.53;2.00;;;;;;;;;;5409307;26;20260;-68
2024/04/23 12:58:04;;;;;;;4.75;2.22;;;;;;;;;;5434704;26;20305;-69
2024/04/23 13:00:30;;;;;;;2.70;2.17;;;;;;;;;;5437543;26;20760;-68
2024/04/23 13:02:55;;;;;;;2.42;2.13;;;;;;;;;;5408879;26;20245;-69
2024/04/23 13:05:20;;;;;;;2.83;2.03;;;;;;;;;;5443109;26;20745;-68
2024/04/23 13:07:45;;;;;;;2.83;2.35;;;;;;;;;;5408342;26;20243;-68
2024/04/23 13:10:12;;;;;;;4.03;2.50;;;;;;;;;;5440555;26;20234;-68
2024/04/23 13:12:37;;;;;;;2.40;1.90;;;;;;;;;;5408037;26;20263;-68
2024/04/23 13:15:02;;;;;;;2.70;1.75;;;;;;;;;;5441961;26;20350;-68
2024/04/23 13:17:28;;;;;;;2.50;1.90;;;;;;;;;;5435730;26;20626;-69
2024/04/23 13:19:53;;;;;;;2.75;2.25;;;;;;;;;;5441179;26;20334;-70
2024/04/23 13:22:18;;;;;;;3.65;1.95;;;;;;;;;;5439663;26;20272;-69
2024/04/23 13:24:43;;;;;;;2.67;2.17;;;;;;;;;;5443416;26;20336;-69
2024/04/23 13:27:08;;;;;;;2.63;1.83;;;;;;;;;;5440596;26;20654;-69
2024/04/23 13:29:34;;;;;;;3.30;2.53;;;;;;;;;;5444139;26;21726;-69
2024/04/23 13:32:00;;;;;;;2.40;2.08;;;;;;;;;;5445844;26;20330;-68
2024/04/23 13:34:25;;;;;;;3.10;2.63;;;;;;;;;;5442306;26;20246;-68
2024/04/23 13:36:50;;;;;;;3.30;2.50;;;;;;;;;;5413613;26;20668;-70
2024/04/23 13:39:16;;;;;;;3.13;2.83;;;;;;;;;;5444042;26;20272;-67
2024/04/23 13:41:41;;;;;;;4.20;2.70;;;;;;;;;;5386144;26;20257;-69
2024/04/23 13:44:06;;;;;;;3.08;2.17;;;;;;;;;;5442661;26;20225;-68
2024/04/23 13:46:31;;;;;;;2.25;1.80;;;;;;;;;;5442963;26;20246;-68
2024/04/23 13:48:56;;;;;;;2.83;1.60;;;;;;;;;;5444224;26;20229;-68
2024/04/23 13:51:22;;;;;;;2.17;1.15;;;;;;;;;;5445707;26;20249;-69
2024/04/23 13:53:47;;;;;;;1.92;1.33;;;;;;;;;;5445876;26;20848;-69
2024/04/23 13:56:12;;;;;;;1.70;1.25;;;;;;;;;;5412213;26;20341;-68
2024/04/23 13:58:37;;;;;;;2.03;0.82;;;;;;;;;;5413166;26;20238;-69
2024/04/23 14:01:09;;;;;;;2.83;0.77;;;;;;;;;;5439495;26;20264;-68
2024/04/23 14:03:35;;;;;;;0.70;0.60;;;;;;;;;;5443064;26;20233;-69
2024/04/23 14:06:03;;;;;;;0.88;0.77;;;;;;;;;;5436882;26;20754;-70
2024/04/23 14:08:29;;;;;;;0.57;0.55;;;;;;;;;;5446003;26;20797;-69
2024/04/23 14:10:58;;;;;;;1.10;0.70;;;;;;;;;;5442332;26;20234;-68
2024/04/23 14:13:23;;;;;;;0.98;0.75;;;;;;;;;;5411538;26;20229;-69
2024/04/23 14:15:49;;;;;;;1.13;0.60;;;;;;;;;;5445888;26;20387;-69
2024/04/23 14:18:14;;;;;;;1.15;0.80;;;;;;;;;;5380940;26;20241;-69
2024/04/23 14:20:39;;;;;;;1.77;0.90;;;;;;;;;;5447413;26;20245;-69
2024/04/23 14:23:04;;;;;;;0.80;0.80;;;;;;;;;;5442580;26;20628;-68
2024/04/23 14:25:29;;;;;;;1.10;1.00;;;;;;;;;;5443874;26;20323;-69
2024/04/23 14:27:55;;;;;;;1.50;1.00;;;;;;;;;;5449046;26;20280;-68
2024/04/23 14:30:21;;;;;;;1.85;1.23;;;;;;;;;;5446814;26;20305;-67
2024/04/23 14:32:47;;;;;;;3.08;1.30;;;;;;;;;;5447828;26;20379;-69
2024/04/23 14:35:12;;;;;;;2.58;0.90;;;;;;;;;;5453460;26;20241;-68
2024/04/23 14:37:37;;;;;;;4.28;1.13;;;;;;;;;;5448346;26;20233;-68
2024/04/23 14:40:03;;;;;;;2.17;1.15;;;;;;;;;;5444812;26;20245;-67
2024/04/23 14:42:28;;;;;;;4.68;1.27;;;;;;;;;;5447620;26;20249;-68